sensor_id;sensor_type;location;lat;lon;timestamp;P1;durP1;ratioP1;P2;durP2;ratioP2
65328;SDS011;51941;52.210;5.158;2023-05-14T00:00:09;18.33;;;13.35;;
65328;SDS011;51941;52.210;5.158;2023-05-14T00:02:37;19.98;;;13.85;;
65328;SDS011;51941;52.210;5.158;2023-05-14T00:05:05;22.95;;;14.38;;
65328;SDS011;51941;52.210;5.158;2023-05-14T00:07:33;20.50;;;13.68;;
65328;SDS011;51941;52.210;5.158;2023-05-14T00:09:59;22.23;;;14.68;;
65328;SDS011;51941;52.210;5.158;2023-05-14T00:12:26;22.85;;;14.95;;
65328;SDS011;51941;52.210;5.158;2023-05-14T00:14:54;21.67;;;14.57;;
65328;SDS011;51941;52.210;5.158;2023-05-14T00:17:21;18.35;;;13.82;;
65328;SDS011;51941;52.210;5.158;2023-05-14T00:19:47;18.90;;;14.57;;
65328;SDS011;51941;52.210;5.158;2023-05-14T00:22:15;20.35;;;13.98;;
65328;SDS011;51941;52.210;5.158;2023-05-14T00:24:42;17.90;;;13.52;;
65328;SDS011;51941;52.210;5.158;2023-05-14T00:27:09;22.60;;;14.90;;
65328;SDS011;51941;52.210;5.158;2023-05-14T00:29:35;17.50;;;13.10;;
65328;SDS011;51941;52.210;5.158;2023-05-14T00:32:02;20.10;;;14.90;;
65328;SDS011;51941;52.210;5.158;2023-05-14T00:34:29;22.90;;;15.10;;
65328;SDS011;51941;52.210;5.158;2023-05-14T00:36:56;20.23;;;13.80;;
65328;SDS011;51941;52.210;5.158;2023-05-14T00:39:24;20.80;;;13.60;;
65328;SDS011;51941;52.210;5.158;2023-05-14T00:41:51;16.60;;;13.02;;
65328;SDS011;51941;52.210;5.158;2023-05-14T00:44:17;21.15;;;14.00;;
65328;SDS011;51941;52.210;5.158;2023-05-14T00:46:47;21.13;;;14.65;;
65328;SDS011;51941;52.210;5.158;2023-05-14T00:49:14;20.42;;;13.45;;
65328;SDS011;51941;52.210;5.158;2023-05-14T00:51:42;21.02;;;15.88;;
65328;SDS011;51941;52.210;5.158;2023-05-14T00:54:10;23.45;;;14.10;;
65328;SDS011;51941;52.210;5.158;2023-05-14T00:56:40;19.92;;;13.85;;
65328;SDS011;51941;52.210;5.158;2023-05-14T00:59:07;21.50;;;13.38;;
65328;SDS011;51941;52.210;5.158;2023-05-14T01:01:33;19.67;;;13.32;;
65328;SDS011;51941;52.210;5.158;2023-05-14T01:04:00;20.08;;;13.93;;
65328;SDS011;51941;52.210;5.158;2023-05-14T01:06:28;18.23;;;12.85;;
65328;SDS011;51941;52.210;5.158;2023-05-14T01:09:02;21.23;;;14.13;;
65328;SDS011;51941;52.210;5.158;2023-05-14T01:11:35;20.23;;;14.30;;
65328;SDS011;51941;52.210;5.158;2023-05-14T01:14:10;24.85;;;14.38;;
65328;SDS011;51941;52.210;5.158;2023-05-14T01:16:46;19.67;;;14.02;;
65328;SDS011;51941;52.210;5.158;2023-05-14T01:19:18;23.42;;;14.65;;
65328;SDS011;51941;52.210;5.158;2023-05-14T01:21:48;22.48;;;14.48;;
65328;SDS011;51941;52.210;5.158;2023-05-14T01:24:15;18.45;;;13.57;;
65328;SDS011;51941;52.210;5.158;2023-05-14T01:26:42;18.83;;;13.25;;
65328;SDS011;51941;52.210;5.158;2023-05-14T01:29:10;21.08;;;13.57;;
65328;SDS011;51941;52.210;5.158;2023-05-14T01:31:42;17.92;;;13.18;;
65328;SDS011;51941;52.210;5.158;2023-05-14T01:34:11;21.90;;;13.88;;
65328;SDS011;51941;52.210;5.158;2023-05-14T01:36:39;21.20;;;13.25;;
65328;SDS011;51941;52.210;5.158;2023-05-14T01:39:09;19.52;;;12.40;;
65328;SDS011;51941;52.210;5.158;2023-05-14T01:41:37;20.30;;;13.20;;
65328;SDS011;51941;52.210;5.158;2023-05-14T01:44:04;22.05;;;15.30;;
65328;SDS011;51941;52.210;5.158;2023-05-14T01:46:31;25.40;;;14.85;;
65328;SDS011;51941;52.210;5.158;2023-05-14T01:48:58;25.45;;;14.25;;
65328;SDS011;51941;52.210;5.158;2023-05-14T01:51:24;23.13;;;14.90;;
65328;SDS011;51941;52.210;5.158;2023-05-14T01:53:51;20.00;;;13.43;;
65328;SDS011;51941;52.210;5.158;2023-05-14T01:56:19;22.52;;;13.80;;
65328;SDS011;51941;52.210;5.158;2023-05-14T01:58:47;23.38;;;15.10;;
65328;SDS011;51941;52.210;5.158;2023-05-14T02:01:14;19.85;;;13.45;;
65328;SDS011;51941;52.210;5.158;2023-05-14T02:03:41;18.15;;;13.20;;
65328;SDS011;51941;52.210;5.158;2023-05-14T02:06:07;21.40;;;14.60;;
65328;SDS011;51941;52.210;5.158;2023-05-14T02:08:34;20.15;;;12.80;;
65328;SDS011;51941;52.210;5.158;2023-05-14T02:11:01;22.35;;;15.10;;
65328;SDS011;51941;52.210;5.158;2023-05-14T02:13:29;20.33;;;13.60;;
65328;SDS011;51941;52.210;5.158;2023-05-14T02:15:56;24.67;;;14.98;;
65328;SDS011;51941;52.210;5.158;2023-05-14T02:18:22;24.60;;;15.85;;
65328;SDS011;51941;52.210;5.158;2023-05-14T02:20:50;23.60;;;13.70;;
65328;SDS011;51941;52.210;5.158;2023-05-14T02:23:17;22.52;;;14.00;;
65328;SDS011;51941;52.210;5.158;2023-05-14T02:25:43;21.00;;;14.68;;
65328;SDS011;51941;52.210;5.158;2023-05-14T02:28:10;24.45;;;14.85;;
65328;SDS011;51941;52.210;5.158;2023-05-14T02:30:38;23.33;;;14.80;;
65328;SDS011;51941;52.210;5.158;2023-05-14T02:33:05;24.40;;;14.93;;
65328;SDS011;51941;52.210;5.158;2023-05-14T02:35:32;26.98;;;15.80;;
65328;SDS011;51941;52.210;5.158;2023-05-14T02:37:58;24.60;;;15.68;;
65328;SDS011;51941;52.210;5.158;2023-05-14T02:40:26;23.15;;;14.40;;
65328;SDS011;51941;52.210;5.158;2023-05-14T02:42:53;25.10;;;15.63;;
65328;SDS011;51941;52.210;5.158;2023-05-14T02:45:20;21.70;;;15.63;;
65328;SDS011;51941;52.210;5.158;2023-05-14T02:47:48;25.30;;;15.93;;
65328;SDS011;51941;52.210;5.158;2023-05-14T02:50:18;18.80;;;13.07;;
65328;SDS011;51941;52.210;5.158;2023-05-14T02:52:45;22.85;;;14.77;;
65328;SDS011;51941;52.210;5.158;2023-05-14T02:55:12;25.73;;;15.80;;
65328;SDS011;51941;52.210;5.158;2023-05-14T02:57:38;28.48;;;16.83;;
65328;SDS011;51941;52.210;5.158;2023-05-14T03:00:05;22.95;;;15.70;;
65328;SDS011;51941;52.210;5.158;2023-05-14T03:02:33;25.02;;;16.38;;
65328;SDS011;51941;52.210;5.158;2023-05-14T03:05:01;20.95;;;14.20;;
65328;SDS011;51941;52.210;5.158;2023-05-14T03:07:28;18.83;;;13.80;;
65328;SDS011;51941;52.210;5.158;2023-05-14T03:09:55;23.88;;;15.95;;
65328;SDS011;51941;52.210;5.158;2023-05-14T03:12:24;25.50;;;15.25;;
65328;SDS011;51941;52.210;5.158;2023-05-14T03:14:51;22.02;;;15.88;;
65328;SDS011;51941;52.210;5.158;2023-05-14T03:17:18;23.35;;;14.85;;
65328;SDS011;51941;52.210;5.158;2023-05-14T03:19:45;20.27;;;15.30;;
65328;SDS011;51941;52.210;5.158;2023-05-14T03:22:13;23.42;;;15.38;;
65328;SDS011;51941;52.210;5.158;2023-05-14T03:24:39;22.98;;;14.77;;
65328;SDS011;51941;52.210;5.158;2023-05-14T03:27:06;19.48;;;13.93;;
65328;SDS011;51941;52.210;5.158;2023-05-14T03:29:33;28.27;;;15.30;;
65328;SDS011;51941;52.210;5.158;2023-05-14T03:31:59;19.40;;;13.88;;
65328;SDS011;51941;52.210;5.158;2023-05-14T03:34:26;29.73;;;15.15;;
65328;SDS011;51941;52.210;5.158;2023-05-14T03:36:53;22.70;;;14.77;;
65328;SDS011;51941;52.210;5.158;2023-05-14T03:39:21;24.00;;;15.02;;
65328;SDS011;51941;52.210;5.158;2023-05-14T03:41:47;26.13;;;16.40;;
65328;SDS011;51941;52.210;5.158;2023-05-14T03:44:14;23.75;;;14.60;;
65328;SDS011;51941;52.210;5.158;2023-05-14T03:46:41;27.52;;;15.57;;
65328;SDS011;51941;52.210;5.158;2023-05-14T03:49:08;22.08;;;14.60;;
65328;SDS011;51941;52.210;5.158;2023-05-14T03:51:35;22.45;;;13.80;;
65328;SDS011;51941;52.210;5.158;2023-05-14T03:54:04;22.30;;;15.50;;
65328;SDS011;51941;52.210;5.158;2023-05-14T03:56:33;25.30;;;15.38;;
65328;SDS011;51941;52.210;5.158;2023-05-14T03:58:59;22.58;;;15.32;;
65328;SDS011;51941;52.210;5.158;2023-05-14T04:01:26;21.27;;;14.25;;
65328;SDS011;51941;52.210;5.158;2023-05-14T04:03:53;19.52;;;13.32;;
65328;SDS011;51941;52.210;5.158;2023-05-14T04:06:19;21.92;;;14.60;;
65328;SDS011;51941;52.210;5.158;2023-05-14T04:08:46;16.63;;;12.50;;
65328;SDS011;51941;52.210;5.158;2023-05-14T04:11:13;19.85;;;13.05;;
65328;SDS011;51941;52.210;5.158;2023-05-14T04:13:41;22.98;;;14.40;;
65328;SDS011;51941;52.210;5.158;2023-05-14T04:16:09;21.30;;;14.55;;
65328;SDS011;51941;52.210;5.158;2023-05-14T04:18:35;17.70;;;12.90;;
65328;SDS011;51941;52.210;5.158;2023-05-14T04:21:02;19.52;;;12.35;;
65328;SDS011;51941;52.210;5.158;2023-05-14T04:23:29;23.10;;;13.70;;
65328;SDS011;51941;52.210;5.158;2023-05-14T04:25:56;20.52;;;13.70;;
65328;SDS011;51941;52.210;5.158;2023-05-14T04:28:23;20.63;;;14.82;;
65328;SDS011;51941;52.210;5.158;2023-05-14T04:30:51;21.05;;;14.82;;
65328;SDS011;51941;52.210;5.158;2023-05-14T04:33:18;18.80;;;13.73;;
65328;SDS011;51941;52.210;5.158;2023-05-14T04:35:45;19.63;;;12.35;;
65328;SDS011;51941;52.210;5.158;2023-05-14T04:38:11;19.35;;;12.00;;
65328;SDS011;51941;52.210;5.158;2023-05-14T04:40:39;17.13;;;11.88;;
65328;SDS011;51941;52.210;5.158;2023-05-14T04:43:06;17.35;;;11.90;;
65328;SDS011;51941;52.210;5.158;2023-05-14T04:45:33;19.10;;;12.68;;
65328;SDS011;51941;52.210;5.158;2023-05-14T04:48:01;17.45;;;11.93;;
65328;SDS011;51941;52.210;5.158;2023-05-14T04:50:28;21.02;;;13.63;;
65328;SDS011;51941;52.210;5.158;2023-05-14T04:52:55;16.27;;;12.05;;
65328;SDS011;51941;52.210;5.158;2023-05-14T04:55:22;15.02;;;11.30;;
65328;SDS011;51941;52.210;5.158;2023-05-14T04:57:48;16.83;;;12.23;;
65328;SDS011;51941;52.210;5.158;2023-05-14T05:00:15;19.70;;;11.45;;
65328;SDS011;51941;52.210;5.158;2023-05-14T05:02:43;17.13;;;12.73;;
65328;SDS011;51941;52.210;5.158;2023-05-14T05:05:11;20.35;;;13.27;;
65328;SDS011;51941;52.210;5.158;2023-05-14T05:07:37;16.02;;;11.85;;
65328;SDS011;51941;52.210;5.158;2023-05-14T05:10:04;16.55;;;11.93;;
65328;SDS011;51941;52.210;5.158;2023-05-14T05:12:32;19.45;;;12.45;;
65328;SDS011;51941;52.210;5.158;2023-05-14T05:14:59;16.58;;;12.23;;
65328;SDS011;51941;52.210;5.158;2023-05-14T05:17:26;16.58;;;11.50;;
65328;SDS011;51941;52.210;5.158;2023-05-14T05:19:52;19.02;;;11.43;;
65328;SDS011;51941;52.210;5.158;2023-05-14T05:22:20;14.65;;;11.48;;
65328;SDS011;51941;52.210;5.158;2023-05-14T05:24:47;18.38;;;12.23;;
65328;SDS011;51941;52.210;5.158;2023-05-14T05:27:14;19.33;;;11.68;;
65328;SDS011;51941;52.210;5.158;2023-05-14T05:29:40;17.75;;;12.90;;
65328;SDS011;51941;52.210;5.158;2023-05-14T05:32:09;20.00;;;11.55;;
65328;SDS011;51941;52.210;5.158;2023-05-14T05:34:35;16.85;;;13.70;;
65328;SDS011;51941;52.210;5.158;2023-05-14T05:37:02;22.92;;;12.25;;
65328;SDS011;51941;52.210;5.158;2023-05-14T05:39:31;13.40;;;11.07;;
65328;SDS011;51941;52.210;5.158;2023-05-14T05:41:59;20.23;;;12.47;;
65328;SDS011;51941;52.210;5.158;2023-05-14T05:44:27;20.02;;;12.50;;
65328;SDS011;51941;52.210;5.158;2023-05-14T05:46:54;17.55;;;12.38;;
65328;SDS011;51941;52.210;5.158;2023-05-14T05:49:21;21.08;;;11.98;;
65328;SDS011;51941;52.210;5.158;2023-05-14T05:51:48;14.45;;;10.98;;
65328;SDS011;51941;52.210;5.158;2023-05-14T05:54:15;22.45;;;12.18;;
65328;SDS011;51941;52.210;5.158;2023-05-14T05:56:43;17.17;;;12.00;;
65328;SDS011;51941;52.210;5.158;2023-05-14T05:59:10;20.77;;;12.05;;
65328;SDS011;51941;52.210;5.158;2023-05-14T06:01:36;16.52;;;12.20;;
65328;SDS011;51941;52.210;5.158;2023-05-14T06:04:04;23.10;;;11.77;;
65328;SDS011;51941;52.210;5.158;2023-05-14T06:06:31;20.40;;;12.32;;
65328;SDS011;51941;52.210;5.158;2023-05-14T06:08:58;15.48;;;11.15;;
65328;SDS011;51941;52.210;5.158;2023-05-14T06:11:25;18.40;;;10.25;;
65328;SDS011;51941;52.210;5.158;2023-05-14T06:13:54;19.08;;;12.13;;
65328;SDS011;51941;52.210;5.158;2023-05-14T06:16:20;16.33;;;12.00;;
65328;SDS011;51941;52.210;5.158;2023-05-14T06:18:47;17.80;;;12.15;;
65328;SDS011;51941;52.210;5.158;2023-05-14T06:21:14;20.02;;;12.25;;
65328;SDS011;51941;52.210;5.158;2023-05-14T06:23:40;17.00;;;12.05;;
65328;SDS011;51941;52.210;5.158;2023-05-14T06:26:07;17.13;;;11.73;;
65328;SDS011;51941;52.210;5.158;2023-05-14T06:28:33;21.60;;;11.93;;
65328;SDS011;51941;52.210;5.158;2023-05-14T06:31:02;17.77;;;11.13;;
65328;SDS011;51941;52.210;5.158;2023-05-14T06:33:28;19.98;;;10.70;;
65328;SDS011;51941;52.210;5.158;2023-05-14T06:35:55;17.10;;;11.05;;
65328;SDS011;51941;52.210;5.158;2023-05-14T06:38:22;14.60;;;10.30;;
65328;SDS011;51941;52.210;5.158;2023-05-14T06:40:49;18.02;;;10.40;;
65328;SDS011;51941;52.210;5.158;2023-05-14T06:43:17;15.90;;;10.90;;
65328;SDS011;51941;52.210;5.158;2023-05-14T06:45:47;13.50;;;10.05;;
65328;SDS011;51941;52.210;5.158;2023-05-14T06:48:15;16.10;;;10.70;;
65328;SDS011;51941;52.210;5.158;2023-05-14T06:50:43;16.45;;;10.40;;
65328;SDS011;51941;52.210;5.158;2023-05-14T06:53:09;20.13;;;10.25;;
65328;SDS011;51941;52.210;5.158;2023-05-14T06:55:36;16.15;;;10.65;;
65328;SDS011;51941;52.210;5.158;2023-05-14T06:58:04;12.98;;;9.65;;
65328;SDS011;51941;52.210;5.158;2023-05-14T07:00:31;14.23;;;8.85;;
65328;SDS011;51941;52.210;5.158;2023-05-14T07:02:58;20.00;;;8.60;;
65328;SDS011;51941;52.210;5.158;2023-05-14T07:05:26;14.13;;;7.95;;
65328;SDS011;51941;52.210;5.158;2023-05-14T07:07:53;13.73;;;7.20;;
65328;SDS011;51941;52.210;5.158;2023-05-14T07:10:19;12.00;;;7.47;;
65328;SDS011;51941;52.210;5.158;2023-05-14T07:12:47;12.55;;;7.30;;
65328;SDS011;51941;52.210;5.158;2023-05-14T07:15:14;13.35;;;7.38;;
65328;SDS011;51941;52.210;5.158;2023-05-14T07:17:40;13.02;;;7.65;;
65328;SDS011;51941;52.210;5.158;2023-05-14T07:20:07;9.68;;;6.18;;
65328;SDS011;51941;52.210;5.158;2023-05-14T07:22:36;11.15;;;7.75;;
65328;SDS011;51941;52.210;5.158;2023-05-14T07:25:03;12.68;;;7.15;;
65328;SDS011;51941;52.210;5.158;2023-05-14T07:27:30;11.13;;;6.53;;
65328;SDS011;51941;52.210;5.158;2023-05-14T07:29:57;10.32;;;6.40;;
65328;SDS011;51941;52.210;5.158;2023-05-14T07:32:23;9.80;;;6.65;;
65328;SDS011;51941;52.210;5.158;2023-05-14T07:34:50;8.00;;;6.18;;
65328;SDS011;51941;52.210;5.158;2023-05-14T07:37:17;11.48;;;5.22;;
65328;SDS011;51941;52.210;5.158;2023-05-14T07:39:45;9.95;;;4.55;;
65328;SDS011;51941;52.210;5.158;2023-05-14T07:42:12;9.95;;;4.50;;
65328;SDS011;51941;52.210;5.158;2023-05-14T07:44:38;12.80;;;4.47;;
65328;SDS011;51941;52.210;5.158;2023-05-14T07:47:05;12.32;;;4.78;;
65328;SDS011;51941;52.210;5.158;2023-05-14T07:49:32;10.27;;;4.13;;
65328;SDS011;51941;52.210;5.158;2023-05-14T07:51:59;14.45;;;5.55;;
65328;SDS011;51941;52.210;5.158;2023-05-14T07:54:26;11.60;;;4.70;;
65328;SDS011;51941;52.210;5.158;2023-05-14T07:56:54;13.63;;;3.90;;
65328;SDS011;51941;52.210;5.158;2023-05-14T07:59:20;12.07;;;4.13;;
65328;SDS011;51941;52.210;5.158;2023-05-14T08:01:47;11.57;;;4.40;;
65328;SDS011;51941;52.210;5.158;2023-05-14T08:04:13;12.02;;;4.43;;
65328;SDS011;51941;52.210;5.158;2023-05-14T08:06:40;11.38;;;4.30;;
65328;SDS011;51941;52.210;5.158;2023-05-14T08:09:07;12.98;;;4.07;;
65328;SDS011;51941;52.210;5.158;2023-05-14T08:11:33;11.52;;;3.55;;
65328;SDS011;51941;52.210;5.158;2023-05-14T08:14:01;10.88;;;3.90;;
65328;SDS011;51941;52.210;5.158;2023-05-14T08:16:28;10.60;;;3.83;;
65328;SDS011;51941;52.210;5.158;2023-05-14T08:18:55;10.25;;;3.60;;
65328;SDS011;51941;52.210;5.158;2023-05-14T08:21:21;11.77;;;4.32;;
65328;SDS011;51941;52.210;5.158;2023-05-14T08:23:48;8.32;;;4.05;;
65328;SDS011;51941;52.210;5.158;2023-05-14T08:26:15;10.70;;;4.15;;
65328;SDS011;51941;52.210;5.158;2023-05-14T08:28:41;13.93;;;4.53;;
65328;SDS011;51941;52.210;5.158;2023-05-14T08:31:09;9.98;;;4.20;;
65328;SDS011;51941;52.210;5.158;2023-05-14T08:33:38;13.07;;;3.67;;
65328;SDS011;51941;52.210;5.158;2023-05-14T08:36:05;10.85;;;4.03;;
65328;SDS011;51941;52.210;5.158;2023-05-14T08:38:32;12.98;;;4.35;;
65328;SDS011;51941;52.210;5.158;2023-05-14T08:40:59;11.00;;;4.05;;
65328;SDS011;51941;52.210;5.158;2023-05-14T08:43:26;17.35;;;4.60;;
65328;SDS011;51941;52.210;5.158;2023-05-14T08:45:56;11.43;;;3.92;;
65328;SDS011;51941;52.210;5.158;2023-05-14T08:48:28;7.80;;;3.60;;
65328;SDS011;51941;52.210;5.158;2023-05-14T08:50:58;12.68;;;3.80;;
65328;SDS011;51941;52.210;5.158;2023-05-14T08:53:26;10.55;;;4.10;;
65328;SDS011;51941;52.210;5.158;2023-05-14T08:55:53;9.45;;;3.78;;
65328;SDS011;51941;52.210;5.158;2023-05-14T08:58:20;13.32;;;4.22;;
65328;SDS011;51941;52.210;5.158;2023-05-14T09:00:46;8.95;;;4.20;;
65328;SDS011;51941;52.210;5.158;2023-05-14T09:03:13;8.77;;;3.85;;
65328;SDS011;51941;52.210;5.158;2023-05-14T09:05:42;10.85;;;4.40;;
65328;SDS011;51941;52.210;5.158;2023-05-14T09:08:09;11.65;;;4.18;;
65328;SDS011;51941;52.210;5.158;2023-05-14T09:10:36;17.38;;;4.75;;
65328;SDS011;51941;52.210;5.158;2023-05-14T09:13:04;10.88;;;4.40;;
65328;SDS011;51941;52.210;5.158;2023-05-14T09:15:31;13.68;;;4.60;;
65328;SDS011;51941;52.210;5.158;2023-05-14T09:18:00;9.97;;;4.20;;
65328;SDS011;51941;52.210;5.158;2023-05-14T09:20:27;12.70;;;4.70;;
65328;SDS011;51941;52.210;5.158;2023-05-14T09:22:55;10.63;;;4.63;;
65328;SDS011;51941;52.210;5.158;2023-05-14T09:25:25;10.57;;;3.90;;
65328;SDS011;51941;52.210;5.158;2023-05-14T09:27:54;11.80;;;5.28;;
65328;SDS011;51941;52.210;5.158;2023-05-14T09:30:22;13.88;;;4.70;;
65328;SDS011;51941;52.210;5.158;2023-05-14T09:32:51;10.75;;;5.30;;
65328;SDS011;51941;52.210;5.158;2023-05-14T09:35:21;11.07;;;4.23;;
65328;SDS011;51941;52.210;5.158;2023-05-14T09:37:49;13.20;;;4.22;;
65328;SDS011;51941;52.210;5.158;2023-05-14T09:40:22;13.90;;;4.43;;
65328;SDS011;51941;52.210;5.158;2023-05-14T09:42:49;14.50;;;4.72;;
65328;SDS011;51941;52.210;5.158;2023-05-14T09:45:15;8.85;;;4.28;;
65328;SDS011;51941;52.210;5.158;2023-05-14T09:47:42;8.07;;;4.20;;
65328;SDS011;51941;52.210;5.158;2023-05-14T09:50:09;9.68;;;4.25;;
65328;SDS011;51941;52.210;5.158;2023-05-14T09:52:36;13.30;;;5.00;;
65328;SDS011;51941;52.210;5.158;2023-05-14T09:55:04;7.43;;;4.10;;
65328;SDS011;51941;52.210;5.158;2023-05-14T09:57:33;12.50;;;4.00;;
65328;SDS011;51941;52.210;5.158;2023-05-14T10:00:00;11.90;;;4.60;;
65328;SDS011;51941;52.210;5.158;2023-05-14T10:02:29;9.93;;;4.43;;
65328;SDS011;51941;52.210;5.158;2023-05-14T10:05:01;13.93;;;4.70;;
65328;SDS011;51941;52.210;5.158;2023-05-14T10:07:31;11.63;;;4.40;;
65328;SDS011;51941;52.210;5.158;2023-05-14T10:10:02;10.70;;;4.50;;
65328;SDS011;51941;52.210;5.158;2023-05-14T10:12:35;20.25;;;5.28;;
65328;SDS011;51941;52.210;5.158;2023-05-14T10:15:05;9.07;;;4.30;;
65328;SDS011;51941;52.210;5.158;2023-05-14T10:17:38;10.98;;;4.47;;
65328;SDS011;51941;52.210;5.158;2023-05-14T10:20:07;13.95;;;4.25;;
65328;SDS011;51941;52.210;5.158;2023-05-14T10:22:40;13.40;;;4.90;;
65328;SDS011;51941;52.210;5.158;2023-05-14T10:25:07;16.15;;;4.97;;
65328;SDS011;51941;52.210;5.158;2023-05-14T10:27:36;10.50;;;4.57;;
65328;SDS011;51941;52.210;5.158;2023-05-14T10:30:05;11.52;;;3.78;;
65328;SDS011;51941;52.210;5.158;2023-05-14T10:32:37;10.40;;;4.05;;
65328;SDS011;51941;52.210;5.158;2023-05-14T10:35:14;9.82;;;4.38;;
65328;SDS011;51941;52.210;5.158;2023-05-14T10:37:41;14.73;;;4.53;;
65328;SDS011;51941;52.210;5.158;2023-05-14T10:40:13;12.60;;;4.00;;
65328;SDS011;51941;52.210;5.158;2023-05-14T10:42:41;10.07;;;4.50;;
65328;SDS011;51941;52.210;5.158;2023-05-14T10:45:10;13.25;;;4.80;;
65328;SDS011;51941;52.210;5.158;2023-05-14T10:47:38;11.68;;;4.93;;
65328;SDS011;51941;52.210;5.158;2023-05-14T10:50:08;14.45;;;4.53;;
65328;SDS011;51941;52.210;5.158;2023-05-14T10:55:06;8.77;;;4.10;;
65328;SDS011;51941;52.210;5.158;2023-05-14T10:57:35;11.27;;;3.80;;
65328;SDS011;51941;52.210;5.158;2023-05-14T11:00:05;7.83;;;4.00;;
65328;SDS011;51941;52.210;5.158;2023-05-14T11:02:34;9.50;;;4.25;;
65328;SDS011;51941;52.210;5.158;2023-05-14T11:05:02;7.95;;;3.65;;
65328;SDS011;51941;52.210;5.158;2023-05-14T11:07:31;7.10;;;4.00;;
65328;SDS011;51941;52.210;5.158;2023-05-14T11:10:00;11.07;;;4.15;;
65328;SDS011;51941;52.210;5.158;2023-05-14T11:12:28;8.73;;;3.70;;
65328;SDS011;51941;52.210;5.158;2023-05-14T11:14:57;14.68;;;4.25;;
65328;SDS011;51941;52.210;5.158;2023-05-14T11:17:28;5.88;;;4.15;;
65328;SDS011;51941;52.210;5.158;2023-05-14T11:19:56;11.05;;;4.80;;
65328;SDS011;51941;52.210;5.158;2023-05-14T11:22:23;9.23;;;4.35;;
65328;SDS011;51941;52.210;5.158;2023-05-14T11:24:50;13.07;;;4.40;;
65328;SDS011;51941;52.210;5.158;2023-05-14T11:27:17;15.50;;;4.45;;
65328;SDS011;51941;52.210;5.158;2023-05-14T11:29:45;11.82;;;4.78;;
65328;SDS011;51941;52.210;5.158;2023-05-14T11:32:13;12.73;;;4.97;;
65328;SDS011;51941;52.210;5.158;2023-05-14T11:34:42;9.95;;;4.07;;
65328;SDS011;51941;52.210;5.158;2023-05-14T11:37:10;10.48;;;4.43;;
65328;SDS011;51941;52.210;5.158;2023-05-14T11:39:38;7.70;;;4.05;;
65328;SDS011;51941;52.210;5.158;2023-05-14T11:42:12;9.68;;;4.13;;
65328;SDS011;51941;52.210;5.158;2023-05-14T11:47:09;8.15;;;4.18;;
65328;SDS011;51941;52.210;5.158;2023-05-14T11:49:36;8.95;;;4.22;;
65328;SDS011;51941;52.210;5.158;2023-05-14T11:52:05;7.72;;;3.90;;
65328;SDS011;51941;52.210;5.158;2023-05-14T11:54:33;13.38;;;4.00;;
65328;SDS011;51941;52.210;5.158;2023-05-14T11:57:01;9.90;;;4.10;;
65328;SDS011;51941;52.210;5.158;2023-05-14T11:59:32;9.88;;;4.05;;
65328;SDS011;51941;52.210;5.158;2023-05-14T12:01:59;9.18;;;3.92;;
65328;SDS011;51941;52.210;5.158;2023-05-14T12:04:27;15.98;;;4.57;;
65328;SDS011;51941;52.210;5.158;2023-05-14T12:06:56;7.28;;;4.10;;
65328;SDS011;51941;52.210;5.158;2023-05-14T12:09:25;9.15;;;3.97;;
65328;SDS011;51941;52.210;5.158;2023-05-14T12:11:51;8.95;;;3.80;;
65328;SDS011;51941;52.210;5.158;2023-05-14T12:14:18;6.43;;;3.92;;
65328;SDS011;51941;52.210;5.158;2023-05-14T12:16:46;7.20;;;3.92;;
65328;SDS011;51941;52.210;5.158;2023-05-14T12:19:14;8.32;;;4.30;;
65328;SDS011;51941;52.210;5.158;2023-05-14T12:21:42;8.27;;;3.63;;
65328;SDS011;51941;52.210;5.158;2023-05-14T12:24:12;7.45;;;4.03;;
65328;SDS011;51941;52.210;5.158;2023-05-14T12:26:44;10.48;;;4.70;;
65328;SDS011;51941;52.210;5.158;2023-05-14T12:29:11;8.02;;;4.20;;
65328;SDS011;51941;52.210;5.158;2023-05-14T12:31:43;10.27;;;4.07;;
65328;SDS011;51941;52.210;5.158;2023-05-14T12:34:11;7.60;;;4.25;;
65328;SDS011;51941;52.210;5.158;2023-05-14T12:36:37;11.32;;;4.50;;
65328;SDS011;51941;52.210;5.158;2023-05-14T12:39:04;9.52;;;4.20;;
65328;SDS011;51941;52.210;5.158;2023-05-14T12:41:31;10.95;;;3.80;;
65328;SDS011;51941;52.210;5.158;2023-05-14T12:44:01;7.47;;;4.30;;
65328;SDS011;51941;52.210;5.158;2023-05-14T12:46:28;8.52;;;4.30;;
65328;SDS011;51941;52.210;5.158;2023-05-14T12:48:55;9.90;;;4.07;;
65328;SDS011;51941;52.210;5.158;2023-05-14T12:51:22;9.77;;;4.47;;
65328;SDS011;51941;52.210;5.158;2023-05-14T12:53:49;10.70;;;4.30;;
65328;SDS011;51941;52.210;5.158;2023-05-14T12:56:18;7.17;;;3.70;;
65328;SDS011;51941;52.210;5.158;2023-05-14T12:58:45;8.20;;;4.38;;
65328;SDS011;51941;52.210;5.158;2023-05-14T13:01:13;12.00;;;4.30;;
65328;SDS011;51941;52.210;5.158;2023-05-14T13:03:40;10.25;;;5.03;;
65328;SDS011;51941;52.210;5.158;2023-05-14T13:06:06;10.85;;;4.50;;
65328;SDS011;51941;52.210;5.158;2023-05-14T13:08:33;9.95;;;4.40;;
65328;SDS011;51941;52.210;5.158;2023-05-14T13:11:00;10.15;;;4.60;;
65328;SDS011;51941;52.210;5.158;2023-05-14T13:13:27;10.77;;;4.28;;
65328;SDS011;51941;52.210;5.158;2023-05-14T13:15:54;9.68;;;4.20;;
65328;SDS011;51941;52.210;5.158;2023-05-14T13:18:22;8.27;;;4.03;;
65328;SDS011;51941;52.210;5.158;2023-05-14T13:20:50;12.13;;;4.40;;
65328;SDS011;51941;52.210;5.158;2023-05-14T13:23:17;8.93;;;4.03;;
65328;SDS011;51941;52.210;5.158;2023-05-14T13:25:43;8.38;;;4.22;;
65328;SDS011;51941;52.210;5.158;2023-05-14T13:28:10;10.23;;;3.70;;
65328;SDS011;51941;52.210;5.158;2023-05-14T13:30:37;10.20;;;3.80;;
65328;SDS011;51941;52.210;5.158;2023-05-14T13:33:04;10.23;;;3.67;;
65328;SDS011;51941;52.210;5.158;2023-05-14T13:35:32;7.93;;;3.50;;
65328;SDS011;51941;52.210;5.158;2023-05-14T13:37:59;6.22;;;3.47;;
65328;SDS011;51941;52.210;5.158;2023-05-14T13:40:26;12.73;;;3.85;;
65328;SDS011;51941;52.210;5.158;2023-05-14T13:42:53;9.70;;;3.90;;
65328;SDS011;51941;52.210;5.158;2023-05-14T13:45:19;8.77;;;3.30;;
65328;SDS011;51941;52.210;5.158;2023-05-14T13:47:46;6.97;;;3.40;;
65328;SDS011;51941;52.210;5.158;2023-05-14T13:50:13;10.60;;;3.50;;
65328;SDS011;51941;52.210;5.158;2023-05-14T13:52:41;10.93;;;3.63;;
65328;SDS011;51941;52.210;5.158;2023-05-14T13:55:07;10.32;;;3.67;;
65328;SDS011;51941;52.210;5.158;2023-05-14T13:57:34;8.25;;;3.92;;
65328;SDS011;51941;52.210;5.158;2023-05-14T14:00:01;5.65;;;3.30;;
65328;SDS011;51941;52.210;5.158;2023-05-14T14:02:29;11.38;;;3.80;;
65328;SDS011;51941;52.210;5.158;2023-05-14T14:04:56;9.13;;;3.55;;
65328;SDS011;51941;52.210;5.158;2023-05-14T14:07:22;9.02;;;3.92;;
65328;SDS011;51941;52.210;5.158;2023-05-14T14:09:50;8.13;;;3.63;;
65328;SDS011;51941;52.210;5.158;2023-05-14T14:12:17;8.80;;;3.70;;
65328;SDS011;51941;52.210;5.158;2023-05-14T14:14:44;6.72;;;3.38;;
65328;SDS011;51941;52.210;5.158;2023-05-14T14:17:10;11.82;;;3.78;;
65328;SDS011;51941;52.210;5.158;2023-05-14T14:19:37;7.30;;;3.45;;
65328;SDS011;51941;52.210;5.158;2023-05-14T14:22:03;9.07;;;3.50;;
65328;SDS011;51941;52.210;5.158;2023-05-14T14:24:30;7.00;;;3.33;;
65328;SDS011;51941;52.210;5.158;2023-05-14T14:26:58;9.80;;;3.47;;
65328;SDS011;51941;52.210;5.158;2023-05-14T14:29:26;9.70;;;3.30;;
65328;SDS011;51941;52.210;5.158;2023-05-14T14:31:55;7.22;;;3.55;;
65328;SDS011;51941;52.210;5.158;2023-05-14T14:34:22;8.10;;;3.90;;
65328;SDS011;51941;52.210;5.158;2023-05-14T14:36:48;11.27;;;3.95;;